createdAt,value
2018-06-01T05:23:51.637Z,52.79
2018-06-01T05:26:19.016Z,48.99
2018-06-01T05:28:46.416Z,46.58
2018-06-01T05:31:13.801Z,48.35
2018-06-01T05:33:41.188Z,51.78
2018-06-01T05:36:08.581Z,56.13
2018-06-01T05:38:35.970Z,53.87
2018-06-01T05:41:03.353Z,47.67
2018-06-01T05:43:30.750Z,46.20
2018-06-01T05:45:58.144Z,46.13
2018-06-01T05:48:25.529Z,43.57
2018-06-01T05:50:52.920Z,43.24
2018-06-01T05:53:20.308Z,42.84
2018-06-01T05:55:47.696Z,40.70
2018-06-01T05:58:15.089Z,42.41
2018-06-01T06:00:42.478Z,44.87
2018-06-01T06:03:09.865Z,44.34
2018-06-01T06:05:37.245Z,46.48
2018-06-01T06:08:04.648Z,46.11
2018-06-01T06:10:32.024Z,44.46
2018-06-01T06:12:59.439Z,48.88
2018-06-01T06:15:26.825Z,48.16
2018-06-01T06:17:54.221Z,50.57
2018-06-01T06:20:21.605Z,50.60
2018-06-01T06:22:49.032Z,51.40
2018-06-01T06:25:16.385Z,51.05
2018-06-01T06:27:43.771Z,51.10
2018-06-01T06:30:11.160Z,55.04
2018-06-01T06:32:38.897Z,55.83
2018-06-01T06:35:06.283Z,58.35
2018-06-01T06:37:33.952Z,55.22
2018-06-01T06:40:01.477Z,55.24
2018-06-01T06:42:28.865Z,59.72
2018-06-01T06:44:56.260Z,58.98
2018-06-01T06:47:23.640Z,59.39
2018-06-01T06:49:51.949Z,60.96
2018-06-01T06:52:19.329Z,61.44
2018-06-01T06:54:46.725Z,62.35
2018-06-01T06:57:14.113Z,63.95
2018-06-01T06:59:41.501Z,63.38
2018-06-01T07:02:08.909Z,64.66
2018-06-01T07:04:36.301Z,66.51
2018-06-01T07:07:03.710Z,64.68
2018-06-01T07:09:31.102Z,64.18
2018-06-01T07:11:58.493Z,68.46
2018-06-01T07:14:25.883Z,66.67
2018-06-01T07:16:53.264Z,65.81
2018-06-01T07:19:20.653Z,64.21
2018-06-01T07:21:48.045Z,68.26
2018-06-01T07:24:16.356Z,68.88
2018-06-01T07:26:43.730Z,70.01
2018-06-01T07:35:17.267Z,71.87
2018-06-01T07:37:56.414Z,68.45
2018-06-01T07:43:26.231Z,70.78
2018-06-01T07:45:53.635Z,67.32
2018-06-01T07:57:29.204Z,65.73
2018-06-01T07:59:56.617Z,65.47
2018-06-01T08:02:24.062Z,66.94
2018-06-01T08:04:51.474Z,69.30
2018-06-01T08:07:18.860Z,66.68
2018-06-01T08:09:46.252Z,70.04
2018-06-01T08:12:14.578Z,66.56
2018-06-01T08:14:42.058Z,64.33
2018-06-01T08:23:15.375Z,65.86
2018-06-01T08:25:42.775Z,64.90
2018-06-01T08:28:10.173Z,63.80
2018-06-01T08:30:37.601Z,62.49
2018-06-01T09:03:34.709Z,60.79
2018-06-01T09:06:02.121Z,60.82
2018-06-01T09:08:29.511Z,63.85
2018-06-01T09:10:56.910Z,63.10
2018-06-01T09:13:24.314Z,62.86
2018-06-01T09:15:51.698Z,59.38
2018-06-01T09:18:19.093Z,62.26
2018-06-01T09:20:46.485Z,58.23
2018-06-01T09:23:13.885Z,59.00
2018-06-01T09:25:41.276Z,59.98
2018-06-01T09:28:08.703Z,59.44
2018-06-01T09:30:36.109Z,61.11
2018-06-01T09:33:03.546Z,61.06
2018-06-01T09:35:30.985Z,57.31
2018-06-01T09:37:58.377Z,57.80
2018-06-01T09:40:25.785Z,60.12
2018-06-01T09:42:53.189Z,57.80
2018-06-01T09:45:20.585Z,60.07
2018-06-01T09:47:47.991Z,58.47
2018-06-01T09:50:15.380Z,60.53
2018-06-01T09:52:42.789Z,58.87
2018-06-01T09:55:10.174Z,58.03
2018-06-01T09:57:37.731Z,57.67
2018-06-01T10:00:05.109Z,57.78
2018-06-01T10:02:32.514Z,57.26
2018-06-01T10:05:00.376Z,57.61
2018-06-01T10:07:27.784Z,59.51
2018-06-01T10:10:00.667Z,56.14
2018-06-01T10:12:28.060Z,56.07
2018-06-01T10:14:55.532Z,55.16
2018-06-01T10:17:22.928Z,59.30
2018-06-01T10:19:50.413Z,57.45
2018-06-01T10:22:17.863Z,53.11
2018-06-01T10:24:45.260Z,53.19
2018-06-01T10:27:12.679Z,51.76
2018-06-01T10:29:40.140Z,52.14
2018-06-01T10:32:07.560Z,52.47
2018-06-01T10:34:35.711Z,55.88
2018-06-01T10:37:03.099Z,56.07
2018-06-01T10:39:31.422Z,60.45
2018-06-01T10:41:58.789Z,57.80
2018-06-01T10:44:26.192Z,55.25
2018-06-01T10:46:53.783Z,56.29
2018-06-01T10:49:21.181Z,53.17
2018-06-01T10:51:48.581Z,54.38
2018-06-01T10:54:15.978Z,52.19
2018-06-01T10:56:43.364Z,54.53
2018-06-01T10:59:10.767Z,52.70
2018-06-01T11:01:38.225Z,50.20
2018-06-01T11:04:05.563Z,51.60
2018-06-01T11:06:32.953Z,52.08
2018-06-01T11:09:00.361Z,53.54
2018-06-01T11:11:27.739Z,53.77
2018-06-01T11:13:55.149Z,51.75
2018-06-01T11:16:22.585Z,50.74
2018-06-01T11:18:49.989Z,51.31
2018-06-01T11:21:18.181Z,51.46
2018-06-01T11:23:45.570Z,51.95
2018-06-01T11:26:12.961Z,51.40
2018-06-01T11:28:40.421Z,51.81
2018-06-01T11:31:07.849Z,51.04
2018-06-01T11:33:35.248Z,53.75
2018-06-01T11:36:03.025Z,54.58
2018-06-01T11:38:30.429Z,57.40
2018-06-01T11:40:57.820Z,53.42
2018-06-01T11:43:25.200Z,51.26
2018-06-01T11:45:52.600Z,49.54
2018-06-01T11:48:19.981Z,50.17
2018-06-01T11:50:47.381Z,53.23
2018-06-01T11:53:14.772Z,49.44
2018-06-01T11:55:42.173Z,50.01
2018-06-01T11:58:09.560Z,52.55
2018-06-01T12:00:36.963Z,50.72
2018-06-01T12:03:04.399Z,49.92
2018-06-01T12:05:31.962Z,51.15
2018-06-01T12:07:59.351Z,51.17
2018-06-01T12:10:26.757Z,55.82
2018-06-01T12:12:54.150Z,53.22
2018-06-01T12:15:21.545Z,54.67
2018-06-01T12:17:48.977Z,52.08
2018-06-01T12:20:16.333Z,53.74
2018-06-01T12:22:43.729Z,53.50
2018-06-01T12:25:11.133Z,54.88
2018-06-01T12:27:38.529Z,51.87
2018-06-01T12:30:05.936Z,52.07
2018-06-01T12:32:33.325Z,51.94
2018-06-01T12:35:00.780Z,51.76
2018-06-01T12:37:28.190Z,51.74
2018-06-01T12:39:55.552Z,51.66
2018-06-01T12:42:22.984Z,54.93
2018-06-01T12:44:50.359Z,50.83
2018-06-01T12:47:17.761Z,49.45
2018-06-01T12:49:45.173Z,50.14
2018-06-01T12:52:12.571Z,51.61
2018-06-01T12:54:39.952Z,49.95
2018-06-01T12:57:07.361Z,51.67
2018-06-01T12:59:35.673Z,51.22
2018-06-01T13:02:03.092Z,53.10
2018-06-01T13:04:30.479Z,54.22
2018-06-01T13:06:57.869Z,48.91
2018-06-01T13:09:25.262Z,47.97
2018-06-01T13:11:52.673Z,51.36
2018-06-01T13:14:20.103Z,48.77
2018-06-01T13:16:47.467Z,47.01
2018-06-01T13:19:14.841Z,49.51
2018-06-01T13:21:42.244Z,51.27
2018-06-01T13:24:09.643Z,52.12
2018-06-01T13:26:37.041Z,49.18
2018-06-01T13:29:04.429Z,49.41
2018-06-01T13:31:31.816Z,47.41
2018-06-01T13:33:59.464Z,51.37
2018-06-01T13:36:26.928Z,46.61
2018-06-01T13:38:54.313Z,49.49
2018-06-01T13:41:21.714Z,48.52
2018-06-01T13:43:49.104Z,46.09
2018-06-01T13:46:16.498Z,44.46
2018-06-01T13:48:43.899Z,47.71
2018-06-01T13:51:11.293Z,44.74
2018-06-01T13:53:38.689Z,46.75
2018-06-01T13:56:06.073Z,45.01
2018-06-01T13:58:33.472Z,44.77
2018-06-01T14:01:00.877Z,48.92
2018-06-01T14:03:28.265Z,48.17
2018-06-01T14:05:56.368Z,47.72
2018-06-01T14:08:23.768Z,47.96
2018-06-01T14:10:51.149Z,46.65
2018-06-01T14:13:18.597Z,46.04
2018-06-01T14:15:45.993Z,45.16
2018-06-01T14:18:13.395Z,44.12
2018-06-01T14:20:40.781Z,44.78
2018-06-01T14:23:08.542Z,46.79
2018-06-01T14:25:35.924Z,46.37
2018-06-01T14:28:04.106Z,47.24
2018-06-01T14:30:31.488Z,48.13
2018-06-01T14:32:58.893Z,45.06
2018-06-01T14:35:26.406Z,46.10
2018-06-01T14:37:53.937Z,46.93
2018-06-01T14:40:21.336Z,45.81
2018-06-01T14:42:48.782Z,45.34
2018-06-01T14:45:16.176Z,44.69
2018-06-01T14:47:43.561Z,44.91
2018-06-01T14:50:10.973Z,47.63
2018-06-01T14:52:38.360Z,46.62
2018-06-01T14:55:05.764Z,48.84
2018-06-01T14:57:33.153Z,45.70
2018-06-01T15:00:00.553Z,44.50
2018-06-01T15:02:27.948Z,44.05
2018-06-01T15:04:55.349Z,46.11
2018-06-01T15:07:22.945Z,45.78
2018-06-01T15:09:50.368Z,45.00
2018-06-01T15:12:17.776Z,44.18
2018-06-01T15:14:45.238Z,43.49
2018-06-01T15:17:12.758Z,43.81
2018-06-01T15:19:40.374Z,44.40
2018-06-01T15:22:07.765Z,42.96
2018-06-01T15:24:35.168Z,42.35
2018-06-01T15:27:02.556Z,41.02
2018-06-01T15:29:29.958Z,41.47
2018-06-01T15:31:57.345Z,43.10
2018-06-01T15:34:24.742Z,44.28
2018-06-01T15:36:52.135Z,42.33
2018-06-01T15:39:19.525Z,43.88
2018-06-01T15:41:46.909Z,42.13
2018-06-01T15:44:14.304Z,41.90
2018-06-01T15:46:41.701Z,43.50
2018-06-01T15:49:09.119Z,42.81
2018-06-01T15:51:36.541Z,46.48
2018-06-01T15:54:03.925Z,46.14
2018-06-01T15:56:31.437Z,44.80
2018-06-01T15:58:58.829Z,47.46
2018-06-01T16:01:26.224Z,49.37
2018-06-01T16:03:53.630Z,51.21
2018-06-01T16:06:21.027Z,49.53
2018-06-01T16:08:49.357Z,49.81
2018-06-01T16:11:16.789Z,50.80
2018-06-01T16:13:44.184Z,48.41
2018-06-01T16:16:12.325Z,48.67
2018-06-01T16:18:39.712Z,46.77
2018-06-01T16:21:07.111Z,48.62
2018-06-01T16:23:34.501Z,47.18
2018-06-01T16:26:01.906Z,49.01
2018-06-01T16:28:29.330Z,47.97
2018-06-01T16:30:56.725Z,46.95
2018-06-01T16:33:24.169Z,44.70
2018-06-01T16:35:51.566Z,46.50
2018-06-01T16:38:19.055Z,46.35
2018-06-01T16:40:46.973Z,46.98
2018-06-01T16:43:14.349Z,48.00
2018-06-01T16:45:41.745Z,48.25
2018-06-01T16:48:09.151Z,47.10
2018-06-01T16:50:36.553Z,47.53
2018-06-01T16:53:03.949Z,49.19
2018-06-01T16:55:31.340Z,47.34
2018-06-01T16:57:58.729Z,48.27
2018-06-01T17:00:26.128Z,46.98
2018-06-01T17:02:53.511Z,47.15
2018-06-01T17:05:20.908Z,49.92
2018-06-01T17:07:48.309Z,49.83
2018-06-01T17:10:15.696Z,49.17
2018-06-01T17:12:43.101Z,48.91
2018-06-01T17:15:10.517Z,48.76
2018-06-01T17:17:37.917Z,50.66
2018-06-01T17:20:05.301Z,51.53
2018-06-01T17:22:33.496Z,51.19
2018-06-01T17:25:00.865Z,51.47
2018-06-01T17:27:28.267Z,51.96
2018-06-01T17:29:55.657Z,53.57
2018-06-01T17:32:24.661Z,53.52
2018-06-01T17:34:52.061Z,53.70
2018-06-01T17:37:19.460Z,55.21
2018-06-01T17:39:48.239Z,57.25
2018-06-01T17:42:15.649Z,57.24
2018-06-01T17:44:43.041Z,57.57
2018-06-01T17:47:10.523Z,57.10
2018-06-01T17:49:37.939Z,57.52
2018-06-01T17:52:05.339Z,57.98
2018-06-01T17:57:19.015Z,61.82
2018-06-01T17:59:46.409Z,62.84
2018-06-01T18:02:14.416Z,63.06
2018-06-01T18:07:44.099Z,63.16
2018-06-01T18:13:14.643Z,63.95
2018-06-01T19:01:27.495Z,67.66
2018-06-01T19:03:54.962Z,68.29
2018-06-01T19:06:22.431Z,68.24
2018-06-01T19:08:49.846Z,69.51
2018-06-01T19:11:17.313Z,69.12
2018-06-01T19:13:44.708Z,69.04
2018-06-01T19:16:12.124Z,69.47
2018-06-01T19:18:39.516Z,70.13
2018-06-01T19:21:06.901Z,71.07
2018-06-01T19:23:34.304Z,70.22
2018-06-01T19:26:05.812Z,70.71
2018-06-01T19:49:59.576Z,73.83
2018-06-01T19:55:30.190Z,73.88
2018-06-01T20:43:42.591Z,76.08
2018-06-01T20:46:13.135Z,76.31
2018-06-01T20:48:40.563Z,76.99
